createdAt,value
2022-11-27T00:01:35.540Z,15.82
2022-11-27T00:04:02.774Z,16.87
2022-11-27T00:06:31.141Z,15.55
2022-11-27T00:09:03.811Z,16.67
2022-11-27T00:11:31.983Z,14.40
2022-11-27T00:13:59.614Z,16.83
2022-11-27T00:16:27.636Z,19.25
2022-11-27T00:18:54.611Z,17.17
2022-11-27T00:21:24.622Z,15.20
2022-11-27T00:23:52.708Z,15.02
2022-11-27T00:26:21.447Z,16.60
2022-11-27T00:28:48.774Z,15.05
2022-11-27T00:31:27.092Z,16.35
2022-11-27T00:33:59.386Z,17.90
2022-11-27T00:36:27.848Z,15.32
2022-11-27T00:38:54.869Z,17.33
2022-11-27T00:41:24.927Z,19.92
2022-11-27T00:43:52.553Z,15.98
2022-11-27T00:46:26.858Z,14.40
2022-11-27T00:48:56.005Z,15.57
2022-11-27T00:51:23.751Z,16.40
2022-11-27T00:53:54.261Z,14.57
2022-11-27T00:56:29.412Z,18.20
2022-11-27T00:58:56.979Z,15.95
2022-11-27T01:01:30.718Z,17.67
2022-11-27T01:04:00.847Z,13.82
2022-11-27T01:06:29.123Z,16.13
2022-11-27T01:08:55.991Z,15.70
2022-11-27T01:11:28.637Z,17.95
2022-11-27T01:13:57.765Z,14.23
2022-11-27T01:16:25.977Z,15.52
2022-11-27T01:18:55.349Z,17.02
2022-11-27T01:21:22.293Z,17.17
2022-11-27T01:23:49.632Z,15.60
2022-11-27T01:26:17.750Z,16.13
2022-11-27T01:28:44.667Z,15.60
2022-11-27T01:31:22.918Z,16.90
2022-11-27T01:33:54.127Z,14.00
2022-11-27T01:36:21.637Z,12.65
2022-11-27T01:38:48.240Z,14.27
2022-11-27T01:41:19.625Z,13.35
2022-11-27T01:44:12.380Z,16.43
2022-11-27T01:46:42.255Z,14.18
2022-11-27T01:49:08.804Z,13.65
2022-11-27T01:51:41.911Z,12.60
2022-11-27T01:54:10.351Z,12.63
2022-11-27T01:56:38.452Z,16.13
2022-11-27T01:59:05.100Z,12.93
2022-11-27T02:01:31.997Z,14.85
2022-11-27T02:04:00.485Z,13.80
2022-11-27T02:06:27.858Z,11.93
2022-11-27T02:08:55.688Z,14.23
2022-11-27T02:11:42.650Z,10.32
2022-11-27T02:14:38.205Z,14.43
2022-11-27T02:17:34.280Z,11.32
2022-11-27T02:20:12.841Z,10.40
2022-11-27T02:23:06.057Z,12.63
2022-11-27T02:26:22.038Z,12.18
2022-11-27T02:29:02.905Z,12.88
2022-11-27T02:31:44.447Z,10.93
2022-11-27T02:34:20.750Z,12.20
2022-11-27T02:40:12.142Z,13.35
2022-11-27T02:42:47.837Z,11.90
2022-11-27T02:45:21.432Z,11.82
2022-11-27T02:47:50.323Z,11.48
2022-11-27T02:53:19.855Z,13.57
2022-11-27T02:55:49.826Z,12.57
2022-11-27T02:58:20.728Z,11.02
2022-11-27T03:00:48.761Z,11.13
2022-11-27T03:03:20.216Z,10.75
2022-11-27T03:05:50.625Z,12.82
2022-11-27T03:08:25.604Z,11.60
2022-11-27T03:11:04.278Z,10.00
2022-11-27T03:13:35.811Z,14.88
2022-11-27T03:16:05.343Z,11.10
2022-11-27T03:18:50.212Z,10.63
2022-11-27T03:21:16.769Z,13.68
2022-11-27T03:23:43.388Z,15.20
2022-11-27T03:26:10.087Z,13.82
2022-11-27T03:28:36.920Z,13.95
2022-11-27T03:31:03.657Z,13.95
2022-11-27T03:33:30.447Z,12.18
2022-11-27T03:35:57.031Z,14.32
2022-11-27T03:38:23.657Z,13.98
2022-11-27T03:41:08.242Z,11.75
2022-11-27T03:43:44.874Z,10.57
2022-11-27T03:46:23.892Z,12.45
2022-11-27T03:49:12.325Z,12.05
2022-11-27T03:51:50.282Z,10.55
2022-11-27T03:54:49.320Z,12.85
2022-11-27T03:57:36.419Z,12.48
2022-11-27T04:00:07.976Z,11.05
2022-11-27T04:02:52.862Z,12.00
2022-11-27T04:05:20.464Z,13.32
2022-11-27T04:07:47.202Z,12.40
2022-11-27T04:10:14.313Z,11.75
2022-11-27T04:12:41.076Z,12.38
2022-11-27T04:15:08.491Z,12.65
2022-11-27T04:17:35.195Z,10.00
2022-11-27T04:20:02.264Z,11.75
2022-11-27T04:22:28.840Z,10.70
2022-11-27T04:24:55.850Z,12.43
2022-11-27T04:27:22.435Z,11.95
2022-11-27T04:29:49.073Z,10.05
2022-11-27T04:32:15.683Z,13.77
2022-11-27T04:34:42.523Z,11.05
2022-11-27T04:37:09.314Z,14.23
2022-11-27T04:39:35.889Z,12.50
2022-11-27T04:42:02.585Z,12.07
2022-11-27T04:44:29.200Z,12.90
2022-11-27T04:46:55.825Z,13.73
2022-11-27T04:49:22.483Z,11.95
2022-11-27T04:51:49.139Z,11.82
2022-11-27T04:54:15.769Z,10.68
2022-11-27T04:56:42.472Z,14.82
2022-11-27T04:59:09.048Z,12.00
2022-11-27T05:01:35.663Z,12.73
2022-11-27T05:04:02.405Z,11.95
2022-11-27T05:06:29.081Z,11.45
2022-11-27T05:08:59.930Z,16.50
2022-11-27T05:11:26.524Z,12.50
2022-11-27T05:14:13.107Z,15.73
2022-11-27T05:16:40.296Z,13.07
2022-11-27T05:19:06.997Z,13.45
2022-11-27T05:21:33.685Z,13.63
2022-11-27T05:24:00.279Z,11.73
2022-11-27T05:26:26.850Z,13.35
2022-11-27T05:28:53.536Z,12.70
2022-11-27T05:31:20.188Z,13.35
2022-11-27T05:33:46.800Z,13.30
2022-11-27T05:36:13.380Z,10.38
2022-11-27T05:38:40.731Z,12.73
2022-11-27T05:41:07.548Z,14.82
2022-11-27T05:43:34.226Z,14.40
2022-11-27T05:46:05.747Z,11.50
2022-11-27T05:48:32.689Z,15.10
2022-11-27T05:50:59.947Z,15.40
2022-11-27T05:53:26.617Z,11.52
2022-11-27T05:55:53.269Z,12.70
2022-11-27T05:58:20.189Z,12.82
2022-11-27T06:00:46.799Z,13.10
2022-11-27T06:03:15.301Z,11.10
2022-11-27T06:05:41.932Z,12.52
2022-11-27T06:08:08.568Z,12.30
2022-11-27T06:10:35.209Z,13.20
2022-11-27T06:13:01.803Z,10.77
2022-11-27T06:15:28.424Z,10.15
2022-11-27T06:17:55.038Z,12.02
2022-11-27T06:20:21.683Z,13.32
2022-11-27T06:22:48.264Z,11.98
2022-11-27T06:25:15.017Z,11.43
2022-11-27T06:27:41.880Z,11.20
2022-11-27T06:30:09.323Z,10.32
2022-11-27T06:32:35.926Z,10.18
2022-11-27T06:35:02.745Z,10.52
2022-11-27T06:37:30.389Z,10.10
2022-11-27T06:39:56.959Z,13.98
2022-11-27T06:42:23.571Z,11.90
2022-11-27T06:44:50.155Z,10.15
2022-11-27T06:47:16.844Z,11.65
2022-11-27T06:49:43.430Z,11.85
2022-11-27T06:52:10.027Z,11.18
2022-11-27T06:54:36.685Z,9.40
2022-11-27T06:57:03.364Z,11.38
2022-11-27T06:59:30.027Z,7.50
2022-11-27T07:01:56.930Z,11.45
2022-11-27T07:04:23.674Z,9.48
2022-11-27T07:06:50.376Z,10.85
2022-11-27T07:09:17.015Z,11.13
2022-11-27T07:11:43.567Z,9.88
2022-11-27T07:14:10.506Z,11.00
2022-11-27T07:16:37.154Z,8.80
2022-11-27T07:19:06.744Z,9.75
2022-11-27T07:21:35.727Z,9.13
2022-11-27T07:24:02.375Z,8.23
2022-11-27T07:26:30.741Z,10.40
2022-11-27T07:28:57.381Z,11.30
2022-11-27T07:31:27.908Z,9.82
2022-11-27T07:33:55.562Z,9.40
2022-11-27T07:36:28.693Z,11.80
2022-11-27T07:38:55.340Z,13.07
2022-11-27T07:41:22.246Z,10.35
2022-11-27T07:43:49.204Z,9.68
2022-11-27T07:46:17.420Z,9.90
2022-11-27T07:48:44.644Z,8.68
2022-11-27T07:51:13.780Z,9.25
2022-11-27T07:53:41.474Z,9.23
2022-11-27T07:56:10.509Z,10.40
2022-11-27T07:58:37.188Z,8.38
2022-11-27T08:01:08.954Z,10.25
2022-11-27T08:03:35.955Z,8.65
2022-11-27T08:06:02.632Z,7.13
2022-11-27T08:08:29.398Z,7.47
2022-11-27T08:10:56.010Z,7.75
2022-11-27T08:13:22.643Z,10.88
2022-11-27T08:15:49.356Z,9.10
2022-11-27T08:18:15.928Z,9.80
2022-11-27T08:20:42.572Z,8.38
2022-11-27T08:23:09.200Z,8.63
2022-11-27T08:25:38.092Z,9.65
2022-11-27T08:28:04.866Z,7.18
2022-11-27T08:30:31.516Z,7.80
2022-11-27T08:32:58.335Z,6.45
2022-11-27T08:35:24.931Z,7.60
2022-11-27T08:37:51.761Z,6.28
2022-11-27T08:40:18.443Z,7.45
2022-11-27T08:42:45.013Z,9.88
2022-11-27T08:45:11.692Z,6.90
2022-11-27T08:47:38.385Z,7.40
2022-11-27T08:50:05.681Z,9.20
2022-11-27T08:52:32.726Z,7.28
2022-11-27T08:54:59.333Z,6.55
2022-11-27T08:57:26.041Z,9.20
2022-11-27T08:59:52.654Z,7.75
2022-11-27T09:02:19.305Z,7.20
2022-11-27T09:04:45.938Z,6.97
2022-11-27T09:07:15.569Z,8.18
2022-11-27T09:09:42.367Z,8.32
2022-11-27T09:12:09.041Z,9.35
2022-11-27T09:14:35.647Z,9.30
2022-11-27T09:17:02.292Z,9.07
2022-11-27T09:19:28.911Z,9.43
2022-11-27T09:21:56.111Z,7.50
2022-11-27T09:24:22.732Z,9.52
2022-11-27T09:26:49.312Z,8.35
2022-11-27T09:29:15.891Z,9.68
2022-11-27T09:31:42.618Z,8.07
2022-11-27T09:34:09.248Z,10.02
2022-11-27T09:36:36.021Z,11.00
2022-11-27T09:39:03.699Z,12.23
2022-11-27T09:41:48.884Z,9.80
2022-11-27T09:44:24.517Z,8.40
2022-11-27T09:46:52.737Z,8.25
2022-11-27T09:49:41.524Z,8.52
2022-11-27T09:52:34.822Z,10.68
2022-11-27T09:55:17.140Z,7.70
2022-11-27T09:57:52.558Z,8.00
2022-11-27T10:00:20.748Z,10.70
2022-11-27T10:02:48.223Z,7.88
2022-11-27T10:05:29.204Z,8.82
2022-11-27T10:08:14.073Z,7.25
2022-11-27T10:10:58.209Z,9.25
2022-11-27T10:13:55.604Z,11.63
2022-11-27T10:16:44.863Z,8.13
2022-11-27T10:19:32.730Z,9.13
2022-11-27T10:22:13.384Z,6.68
2022-11-27T10:25:09.313Z,7.43
2022-11-27T10:27:35.898Z,10.98
2022-11-27T10:30:10.672Z,10.15
2022-11-27T10:35:27.246Z,7.00
2022-11-27T10:38:20.798Z,7.25
2022-11-27T10:41:07.816Z,7.45
2022-11-27T10:43:36.421Z,6.95
2022-11-27T10:46:16.791Z,9.02
2022-11-27T10:48:43.604Z,7.50
2022-11-27T10:51:17.207Z,9.43
2022-11-27T10:53:47.085Z,7.38
2022-11-27T10:56:15.108Z,5.10
2022-11-27T10:59:00.888Z,7.82
2022-11-27T11:01:44.607Z,6.32
2022-11-27T11:04:36.533Z,6.40
2022-11-27T11:07:01.640Z,6.28
2022-11-27T11:09:32.524Z,5.20
2022-11-27T11:12:15.122Z,7.43
2022-11-27T11:17:17.942Z,6.10
2022-11-27T11:19:45.911Z,5.93
2022-11-27T11:22:16.277Z,5.47
2022-11-27T11:24:51.772Z,5.50
2022-11-27T11:27:21.390Z,4.97
2022-11-27T11:29:50.826Z,5.18
2022-11-27T11:32:20.508Z,6.30
2022-11-27T11:34:48.914Z,4.78
2022-11-27T11:37:38.497Z,4.53
2022-11-27T11:40:25.852Z,4.80
2022-11-27T11:43:20.861Z,4.80
2022-11-27T11:45:48.816Z,5.50
2022-11-27T11:48:27.199Z,4.93
2022-11-27T11:51:00.663Z,5.97
2022-11-27T11:53:35.314Z,4.55
2022-11-27T11:56:29.470Z,5.93
2022-11-27T11:59:11.621Z,5.13
2022-11-27T12:01:46.221Z,6.13
2022-11-27T12:04:30.972Z,4.38
2022-11-27T12:07:07.772Z,5.57
2022-11-27T12:09:37.189Z,5.07
2022-11-27T12:12:28.465Z,4.75
2022-11-27T12:15:15.851Z,4.68
2022-11-27T12:18:03.723Z,4.22
2022-11-27T12:20:39.168Z,4.38
2022-11-27T12:23:50.897Z,3.78
2022-11-27T12:26:29.631Z,6.90
2022-11-27T12:29:05.004Z,4.38
2022-11-27T12:31:42.713Z,4.35
2022-11-27T12:34:32.598Z,5.05
2022-11-27T12:37:24.525Z,4.13
2022-11-27T12:40:18.984Z,4.70
2022-11-27T12:43:00.915Z,2.60
2022-11-27T12:45:41.261Z,5.30
2022-11-27T12:48:21.172Z,5.50
2022-11-27T12:51:07.827Z,4.88
2022-11-27T12:53:50.677Z,4.22
2022-11-27T12:56:39.069Z,3.60
2022-11-27T12:59:33.101Z,4.40
2022-11-27T13:02:10.892Z,5.63
2022-11-27T13:04:44.976Z,4.38
2022-11-27T13:07:26.551Z,4.53
2022-11-27T13:10:10.853Z,4.70
2022-11-27T13:12:51.152Z,4.47
2022-11-27T13:15:30.232Z,5.60
2022-11-27T13:18:21.541Z,5.68
2022-11-27T13:20:52.622Z,4.00
2022-11-27T13:23:20.682Z,5.10
2022-11-27T13:25:52.918Z,4.53
2022-11-27T13:28:42.988Z,6.78
2022-11-27T13:31:20.323Z,5.50
2022-11-27T13:33:48.345Z,5.10
2022-11-27T13:36:25.714Z,5.30
2022-11-27T13:39:00.285Z,5.07
2022-11-27T13:41:43.667Z,5.32
2022-11-27T13:44:42.287Z,5.63
2022-11-27T13:47:19.572Z,5.25
2022-11-27T13:49:57.388Z,5.03
2022-11-27T13:52:24.902Z,7.38
2022-11-27T13:55:00.001Z,11.05
2022-11-27T13:57:28.289Z,5.97
2022-11-27T14:00:02.405Z,4.80
2022-11-27T14:02:47.518Z,4.32
2022-11-27T14:05:16.781Z,5.38
2022-11-27T14:07:54.240Z,4.00
2022-11-27T14:10:24.743Z,5.55
2022-11-27T14:13:07.240Z,4.07
2022-11-27T14:18:26.721Z,4.68
2022-11-27T14:20:56.464Z,4.38
2022-11-27T14:23:50.171Z,4.18
2022-11-27T14:26:16.712Z,5.65
2022-11-27T14:28:49.377Z,5.03
2022-11-27T14:31:30.619Z,4.45
2022-11-27T14:36:44.505Z,5.30
2022-11-27T14:39:25.485Z,4.93
2022-11-27T14:42:07.972Z,5.05
2022-11-27T14:47:03.890Z,4.65
2022-11-27T14:49:32.148Z,5.05
2022-11-27T14:52:04.220Z,3.97
2022-11-27T14:54:37.057Z,4.25
2022-11-27T14:57:05.531Z,5.68
2022-11-27T14:59:32.288Z,4.47
2022-11-27T15:02:03.892Z,3.85
2022-11-27T15:04:39.097Z,5.32
2022-11-27T15:07:13.866Z,4.10
2022-11-27T15:09:48.847Z,4.55
2022-11-27T15:12:22.464Z,3.65
2022-11-27T15:15:15.097Z,4.28
2022-11-27T15:17:45.217Z,3.85
2022-11-27T15:20:14.251Z,4.10
2022-11-27T15:22:49.543Z,4.82
2022-11-27T15:25:28.910Z,4.75
2022-11-27T15:27:55.640Z,4.40
2022-11-27T15:30:22.665Z,4.07
2022-11-27T15:32:51.769Z,4.07
2022-11-27T15:35:26.220Z,3.85
2022-11-27T15:37:55.739Z,3.00
2022-11-27T15:40:38.364Z,4.90
2022-11-27T15:43:15.818Z,3.75
2022-11-27T15:45:43.652Z,3.40
2022-11-27T15:48:19.013Z,3.60
2022-11-27T15:50:51.437Z,2.58
2022-11-27T15:53:18.626Z,3.53
2022-11-27T15:55:45.269Z,4.07
2022-11-27T15:58:11.921Z,3.80
2022-11-27T16:00:43.352Z,4.97
2022-11-27T16:03:09.915Z,4.47
2022-11-27T16:05:36.479Z,4.07
2022-11-27T16:08:03.188Z,3.55
2022-11-27T16:10:29.748Z,7.22
2022-11-27T16:12:57.534Z,6.15
2022-11-27T16:15:27.646Z,3.72
2022-11-27T16:17:58.226Z,4.53
2022-11-27T16:20:25.224Z,3.97
2022-11-27T16:22:52.424Z,4.95
2022-11-27T16:25:19.784Z,4.57
2022-11-27T16:27:46.340Z,4.72
2022-11-27T16:30:13.335Z,4.47
2022-11-27T16:32:40.355Z,5.18
2022-11-27T16:35:07.724Z,5.10
2022-11-27T16:37:34.325Z,6.07
2022-11-27T16:40:00.876Z,5.88
2022-11-27T16:42:28.323Z,4.85
2022-11-27T16:44:54.877Z,4.78
2022-11-27T16:47:21.448Z,5.45
2022-11-27T16:49:49.165Z,6.35
2022-11-27T16:52:16.198Z,6.03
2022-11-27T16:54:43.099Z,6.60
2022-11-27T16:57:09.836Z,7.28
2022-11-27T16:59:38.238Z,6.18
2022-11-27T17:02:05.632Z,5.95
2022-11-27T17:04:32.368Z,4.60
2022-11-27T17:07:00.162Z,5.53
2022-11-27T17:09:29.227Z,4.70
2022-11-27T17:11:55.921Z,4.28
2022-11-27T17:14:22.564Z,6.15
2022-11-27T17:16:49.261Z,5.30
2022-11-27T17:19:16.689Z,7.10
2022-11-27T17:21:43.335Z,6.30
2022-11-27T17:24:15.633Z,5.65
2022-11-27T17:26:43.532Z,5.30
2022-11-27T17:29:12.465Z,6.05
2022-11-27T17:31:39.677Z,3.50
2022-11-27T17:34:07.366Z,3.13
2022-11-27T17:36:37.227Z,4.93
2022-11-27T17:39:05.300Z,4.90
2022-11-27T17:41:32.032Z,3.83
2022-11-27T17:43:58.851Z,4.72
2022-11-27T17:46:27.783Z,6.65
2022-11-27T17:48:55.445Z,5.68
2022-11-27T17:51:22.164Z,8.27
2022-11-27T17:53:49.267Z,6.28
2022-11-27T17:56:17.777Z,4.40
2022-11-27T17:58:44.731Z,5.72
2022-11-27T18:01:17.039Z,5.78
2022-11-27T18:06:13.962Z,4.50
2022-11-27T18:08:41.137Z,6.40
2022-11-27T18:11:10.643Z,6.20
2022-11-27T18:13:37.267Z,5.65
2022-11-27T18:16:12.411Z,5.45
2022-11-27T18:18:39.968Z,6.00
2022-11-27T18:21:10.201Z,5.18
2022-11-27T18:24:00.258Z,4.38
2022-11-27T18:29:14.812Z,4.95
2022-11-27T18:31:41.597Z,4.72
2022-11-27T18:34:08.325Z,5.97
2022-11-27T18:36:35.000Z,7.35
2022-11-27T18:39:02.538Z,7.30
2022-11-27T18:41:29.255Z,7.78
2022-11-27T18:43:57.828Z,6.55
2022-11-27T18:46:24.546Z,5.53
2022-11-27T18:48:51.705Z,5.53
2022-11-27T18:51:21.008Z,5.88
2022-11-27T18:53:47.905Z,4.20
2022-11-27T18:56:20.429Z,5.38
2022-11-27T18:58:47.407Z,6.13
2022-11-27T19:01:17.200Z,10.88
2022-11-27T19:03:44.238Z,7.38
2022-11-27T19:06:12.756Z,7.05
2022-11-27T19:08:39.473Z,8.02
2022-11-27T19:11:17.785Z,6.85
2022-11-27T19:13:48.164Z,5.63
2022-11-27T19:16:21.956Z,6.93
2022-11-27T19:18:49.005Z,6.47
2022-11-27T19:21:21.379Z,7.13
2022-11-27T19:26:18.329Z,6.35
2022-11-27T19:28:47.706Z,5.65
2022-11-27T19:31:15.572Z,4.88
2022-11-27T19:33:43.248Z,5.03
2022-11-27T19:36:13.209Z,5.35
2022-11-27T19:44:04.542Z,4.28
2022-11-27T19:46:36.563Z,5.93
2022-11-27T19:49:12.177Z,7.00
2022-11-27T19:51:39.344Z,6.10
2022-11-27T19:54:10.300Z,5.30
2022-11-27T19:56:39.519Z,5.40
2022-11-27T19:59:06.437Z,4.50
2022-11-27T20:01:33.079Z,5.80
2022-11-27T20:03:59.985Z,6.55
2022-11-27T20:06:27.433Z,6.18
2022-11-27T20:09:01.555Z,5.30
2022-11-27T20:11:34.086Z,4.70
2022-11-27T20:14:01.895Z,5.88
2022-11-27T20:16:28.572Z,7.60
2022-11-27T20:18:55.474Z,7.45
2022-11-27T20:21:24.722Z,7.30
2022-11-27T20:23:52.712Z,6.15
2022-11-27T20:26:25.465Z,6.25
2022-11-27T20:28:53.764Z,3.90
2022-11-27T20:31:28.898Z,5.30
2022-11-27T20:34:00.571Z,5.35
2022-11-27T20:36:28.747Z,6.13
2022-11-27T20:38:57.310Z,4.32
2022-11-27T20:41:24.632Z,5.00
2022-11-27T20:43:58.794Z,6.20
2022-11-27T20:46:27.009Z,4.20
2022-11-27T20:48:54.789Z,4.80
2022-11-27T20:51:24.033Z,3.95
2022-11-27T20:53:51.235Z,5.00
2022-11-27T20:56:20.240Z,5.47
2022-11-27T20:58:48.473Z,4.93
2022-11-27T21:01:18.230Z,3.70
2022-11-27T21:03:46.110Z,4.72
2022-11-27T21:06:14.097Z,4.85
2022-11-27T21:08:40.793Z,4.25
2022-11-27T21:11:28.561Z,4.70
2022-11-27T21:14:01.894Z,4.85
2022-11-27T21:16:31.282Z,4.57
2022-11-27T21:19:00.225Z,4.85
2022-11-27T21:21:27.856Z,4.70
2022-11-27T21:23:54.816Z,4.70
2022-11-27T21:26:22.517Z,4.15
2022-11-27T21:28:50.163Z,4.53
2022-11-27T21:31:22.680Z,4.65
2022-11-27T21:33:51.963Z,5.28
2022-11-27T21:36:20.064Z,5.00
2022-11-27T21:38:46.681Z,5.70
2022-11-27T21:41:13.896Z,4.88
2022-11-27T21:43:41.191Z,4.72
2022-11-27T21:46:09.296Z,3.92
2022-11-27T21:48:36.072Z,5.47
2022-11-27T21:51:04.408Z,4.80
2022-11-27T21:53:32.107Z,4.68
2022-11-27T21:55:59.026Z,4.65
2022-11-27T21:58:25.659Z,4.15
2022-11-27T22:00:52.306Z,4.70
2022-11-27T22:03:18.932Z,5.03
2022-11-27T22:05:45.541Z,4.80
2022-11-27T22:08:12.245Z,5.53
2022-11-27T22:10:41.923Z,4.32
2022-11-27T22:13:08.531Z,3.65
2022-11-27T22:15:36.854Z,6.03
2022-11-27T22:18:03.508Z,5.38
2022-11-27T22:20:30.237Z,5.07
2022-11-27T22:22:56.817Z,4.90
2022-11-27T22:25:23.418Z,4.75
2022-11-27T22:27:50.180Z,5.03
2022-11-27T22:30:17.071Z,5.38
2022-11-27T22:32:43.925Z,5.32
2022-11-27T22:35:10.601Z,6.15
2022-11-27T22:37:37.263Z,5.65
2022-11-27T22:40:04.528Z,5.32
2022-11-27T22:42:31.182Z,6.88
2022-11-27T22:44:57.942Z,6.28
2022-11-27T22:47:24.539Z,6.35
2022-11-27T22:49:51.129Z,4.75
2022-11-27T22:52:17.820Z,6.95
2022-11-27T22:54:44.594Z,5.55
2022-11-27T22:57:11.395Z,5.05
2022-11-27T22:59:37.961Z,5.35
2022-11-27T23:02:05.436Z,5.63
2022-11-27T23:04:32.849Z,5.25
2022-11-27T23:07:00.107Z,4.97
2022-11-27T23:09:26.706Z,5.65
2022-11-27T23:11:53.464Z,6.60
2022-11-27T23:14:20.325Z,5.20
2022-11-27T23:16:47.050Z,7.63
2022-11-27T23:19:13.713Z,7.47
2022-11-27T23:21:40.404Z,5.90
2022-11-27T23:24:09.955Z,6.25
2022-11-27T23:26:36.577Z,5.85
2022-11-27T23:29:04.109Z,5.90
2022-11-27T23:31:35.967Z,6.20
2022-11-27T23:34:07.679Z,6.80
2022-11-27T23:36:35.239Z,6.90
2022-11-27T23:39:04.627Z,5.93
2022-11-27T23:41:31.440Z,8.50
2022-11-27T23:43:58.607Z,7.75
2022-11-27T23:46:28.086Z,6.80
2022-11-27T23:51:48.176Z,6.40
2022-11-27T23:54:14.971Z,8.48
2022-11-27T23:56:42.970Z,8.32
2022-11-27T23:59:09.860Z,8.20
